Time;durP1;ratioP1;P1;durP2;ratioP2;P2;SDS_P1;SDS_P2;PMS_P1;PMS_P2;Temp;Humidity;BMP_temperature;BMP_pressure;BME280_temperature;BME280_humidity;BME280_pressure;Samples;Min_cycle;Max_cycle;Signal;HPM_P1;HPM_P2
2022/11/19 00:01:21;;;;;;;;;;;;;;;3.20;82.30;97111.19;5093329;28;20015;-57
2022/11/19 00:03:49;;;;;;;;;;;;;;;3.23;82.04;97118.66;5116888;27;19924;-62
2022/11/19 00:06:22;;;;;;;;;;;;;;;3.28;82.42;97113.25;5112875;27;19928;-59
2022/11/19 00:08:50;;;;;;;;;;;;;;;3.34;82.24;97109.41;5112055;28;19924;-62
2022/11/19 00:12:53;;;;;;;;;;;;;;;3.24;82.24;97106.84;5092684;28;19931;-61
2022/11/19 00:14:08;;;;;;;;;;;;;;;3.27;82.40;97103.59;5110746;28;20334;-60
2022/11/19 00:16:36;;;;;;;;;;;;;;;3.20;82.50;97106.63;5107402;28;19932;-61
2022/11/19 00:19:04;;;;;;;;;;;;;;;3.17;81.23;97109.06;5093889;28;19938;-60
2022/11/19 00:21:34;;;;;;;;;;;;;;;3.25;81.94;97108.44;5094855;28;19931;-62
2022/11/19 00:24:03;;;;;;;;;;;;;;;3.17;81.88;97109.84;5109328;27;19923;-61
2022/11/19 00:26:33;;;;;;;;;;;;;;;3.32;82.11;97114.28;5107224;28;20385;-61
2022/11/19 00:29:01;;;;;;;;;;;;;;;3.37;82.60;97114.25;5089244;28;20295;-61
2022/11/19 00:31:29;;;;;;;;;;;;;;;3.36;81.38;97118.00;5105386;28;19923;-62
2022/11/19 00:34:23;;;;;;;;;;;;;;;3.21;81.64;97116.28;5101230;27;19931;-66
2022/11/19 00:36:53;;;;;;;;;;;;;;;3.18;81.94;97116.03;5113554;27;20388;-60
2022/11/19 00:39:21;;;;;;;;;;;;;;;3.37;81.67;97111.56;5103727;28;19943;-61
2022/11/19 00:41:49;;;;;;;;;;;;;;;3.24;81.63;97114.88;5110237;28;19923;-60
2022/11/19 00:44:17;;;;;;;;;;;;;;;3.27;82.04;97114.34;5112646;28;19928;-57
2022/11/19 00:46:46;;;;;;;;;;;;;;;3.29;80.98;97109.47;5102397;28;19968;-61
2022/11/19 00:49:14;;;;;;;;;;;;;;;3.15;81.85;97104.78;5095105;28;19924;-60
2022/11/19 00:52:07;;;;;;;;;;;;;;;3.25;82.04;97108.44;5088098;28;20014;-61
2022/11/19 00:54:35;;;;;;;;;;;;;;;3.27;82.15;97117.03;5109562;27;19928;-61
2022/11/19 00:57:06;;;;;;;;;;;;;;;3.30;82.01;97117.25;5113311;27;20003;-61
2022/11/19 00:59:34;;;;;;;;;;;;;;;3.31;82.23;97123.44;5112064;27;20388;-61
2022/11/19 01:02:05;;;;;;;;;;;;;;;3.21;81.83;97121.63;5110917;27;19925;-64
2022/11/19 01:04:35;;;;;;;;;;;;;;;3.20;81.58;97129.97;5111451;28;19938;-64
2022/11/19 01:07:04;;;;;;;;;;;;;;;3.13;81.80;97130.28;5109401;28;20014;-60
2022/11/19 01:09:40;;;;;;;;;;;;;;;3.08;82.30;97131.13;5107955;28;20380;-63
2022/11/19 01:12:08;;;;;;;;;;;;;;;3.12;81.66;97140.22;5111753;28;19924;-61
2022/11/19 01:14:39;;;;;;;;;;;;;;;3.13;82.25;97147.19;5108373;27;19931;-61
2022/11/19 01:17:06;;;;;;;;;;;;;;;3.12;82.16;97150.16;5089147;28;19924;-62
2022/11/19 01:19:35;;;;;;;;;;;;;;;3.09;81.71;97143.50;5110014;27;19924;-63
2022/11/19 01:22:03;;;;;;;;;;;;;;;2.95;81.52;97145.22;5113310;27;20452;-62
2022/11/19 01:24:32;;;;;;;;;;;;;;;2.98;81.17;97143.81;5109205;28;19932;-62
2022/11/19 01:27:01;;;;;;;;;;;;;;;2.94;81.53;97148.97;5109123;28;19923;-61
2022/11/19 01:29:29;;;;;;;;;;;;;;;2.94;81.34;97143.63;5103036;28;19924;-62
2022/11/19 01:31:58;;;;;;;;;;;;;;;2.93;80.45;97149.22;5100585;28;19924;-60
2022/11/19 01:34:25;;;;;;;;;;;;;;;2.85;81.09;97150.66;5107126;28;20285;-64
2022/11/19 01:36:54;;;;;;;;;;;;;;;2.85;81.88;97156.00;5107686;28;19923;-62
2022/11/19 01:39:22;;;;;;;;;;;;;;;2.80;81.27;97158.72;5109572;28;19931;-59
2022/11/19 01:41:50;;;;;;;;;;;;;;;2.77;81.87;97164.63;5108319;28;19934;-62
2022/11/19 01:44:36;;;;;;;;;;;;;;;2.77;81.45;97175.38;5096737;28;19927;-61
2022/11/19 01:47:06;;;;;;;;;;;;;;;2.67;82.31;97165.53;5105228;28;19930;-62
2022/11/19 01:49:34;;;;;;;;;;;;;;;2.69;81.98;97173.28;5092129;28;19923;-61
2022/11/19 01:52:02;;;;;;;;;;;;;;;2.60;81.99;97176.56;5116339;28;19938;-62
2022/11/19 01:54:31;;;;;;;;;;;;;;;2.55;82.22;97173.09;5110792;28;19931;-62
2022/11/19 01:57:02;;;;;;;;;;;;;;;2.61;82.38;97180.84;5110247;27;19923;-61
2022/11/19 01:59:30;;;;;;;;;;;;;;;2.62;81.72;97174.41;5107282;28;19931;-62
2022/11/19 02:02:23;;;;;;;;;;;;;;;2.56;81.74;97174.72;5084207;28;19924;-62
2022/11/19 02:04:55;;;;;;;;;;;;;;;2.41;82.34;97180.97;5105539;28;19973;-61
2022/11/19 02:07:27;;;;;;;;;;;;;;;2.45;82.14;97184.72;5110227;28;20331;-62
2022/11/19 02:09:56;;;;;;;;;;;;;;;2.50;82.09;97181.16;5105891;27;19924;-61
2022/11/19 02:12:26;;;;;;;;;;;;;;;2.33;82.02;97178.84;5109340;27;20377;-62
2022/11/19 02:15:06;;;;;;;;;;;;;;;2.26;82.30;97181.03;5108733;28;20455;-61
2022/11/19 02:17:38;;;;;;;;;;;;;;;2.19;81.87;97172.50;5102750;28;20030;-62
2022/11/19 02:20:26;;;;;;;;;;;;;;;2.07;82.06;97176.28;5107022;28;19930;-61
2022/11/19 02:23:01;;;;;;;;;;;;;;;2.07;82.21;97178.16;5105583;28;20538;-59
2022/11/19 02:25:32;;;;;;;;;;;;;;;2.04;82.37;97179.53;5113737;27;20388;-61
2022/11/19 02:28:18;;;;;;;;;;;;;;;2.01;82.57;97184.63;5109644;28;20299;-57
2022/11/19 02:30:48;;;;;;;;;;;;;;;2.04;82.93;97187.56;5107860;28;20278;-61
2022/11/19 02:36:13;;;;;;;;;;;;;;;2.12;82.71;97193.41;5104203;28;19932;-61
2022/11/19 02:38:41;;;;;;;;;;;;;;;2.14;83.05;97200.13;5104709;28;19924;-61
2022/11/19 02:44:57;;;;;;;;;;;;;;;2.12;83.07;97191.53;5110172;28;20320;-62
2022/11/19 02:46:46;;;;;;;;;;;;;;;2.04;82.83;97195.59;5101729;28;19927;-61
2022/11/19 02:49:15;;;;;;;;;;;;;;;2.22;82.72;97202.22;5092910;28;19931;-61
2022/11/19 02:51:43;;;;;;;;;;;;;;;2.28;82.49;97189.59;5107717;28;19931;-61
2022/11/19 02:54:16;;;;;;;;;;;;;;;2.26;83.08;97191.75;5103898;28;19973;-60
2022/11/19 02:56:50;;;;;;;;;;;;;;;2.24;82.67;97199.28;5095141;28;19924;-61
2022/11/19 03:04:55;;;;;;;;;;;;;;;2.36;81.56;97191.72;5073711;28;20323;-62
2022/11/19 03:07:23;;;;;;;;;;;;;;;2.30;82.28;97193.63;5101871;28;19927;-62
2022/11/19 03:09:53;;;;;;;;;;;;;;;2.18;82.58;97195.78;5111223;28;19930;-61
2022/11/19 03:12:22;;;;;;;;;;;;;;;2.23;82.70;97194.97;5099898;28;19952;-61
2022/11/19 03:17:44;;;;;;;;;;;;;;;2.17;83.00;97193.41;5095006;28;20203;-61
2022/11/19 03:20:14;;;;;;;;;;;;;;;2.20;82.72;97198.22;5110833;28;19928;-61
2022/11/19 03:22:45;;;;;;;;;;;;;;;2.24;83.00;97193.94;5114034;28;19924;-62
2022/11/19 03:25:15;;;;;;;;;;;;;;;2.25;82.62;97203.56;5104514;28;19967;-60
2022/11/19 03:27:43;;;;;;;;;;;;;;;2.28;82.44;97211.03;5105922;28;19924;-62
2022/11/19 03:30:12;;;;;;;;;;;;;;;2.22;81.91;97209.47;5096328;28;19924;-65
2022/11/19 03:32:41;;;;;;;;;;;;;;;2.19;82.34;97213.50;5108495;28;19951;-62
2022/11/19 03:35:12;;;;;;;;;;;;;;;2.14;81.49;97216.19;5107866;28;19924;-61
2022/11/19 03:37:41;;;;;;;;;;;;;;;2.26;81.96;97213.19;5114386;28;20397;-61
2022/11/19 03:40:09;;;;;;;;;;;;;;;2.35;81.24;97216.91;5107409;28;20289;-61
2022/11/19 03:42:37;;;;;;;;;;;;;;;2.10;82.46;97220.50;5107306;28;19928;-62
2022/11/19 03:45:08;;;;;;;;;;;;;;;2.14;81.82;97234.16;5108691;28;20285;-62
2022/11/19 03:47:41;;;;;;;;;;;;;;;2.07;82.08;97232.53;5089392;28;20296;-62
2022/11/19 03:50:11;;;;;;;;;;;;;;;2.14;81.46;97236.84;5090409;28;19923;-62
2022/11/19 03:52:40;;;;;;;;;;;;;;;2.19;81.39;97239.50;5102906;28;19924;-62
2022/11/19 03:55:08;;;;;;;;;;;;;;;2.08;81.21;97244.09;5113185;27;20377;-62
2022/11/19 03:58:01;;;;;;;;;;;;;;;2.12;81.91;97245.13;5090264;28;19924;-62
2022/11/19 04:00:29;;;;;;;;;;;;;;;2.17;82.31;97247.00;5103045;28;19928;-61
2022/11/19 04:02:57;;;;;;;;;;;;;;;2.24;82.94;97251.00;5109088;28;20292;-62
2022/11/19 04:05:25;;;;;;;;;;;;;;;2.06;81.66;97249.69;5113806;27;20064;-62
2022/11/19 04:08:18;;;;;;;;;;;;;;;2.20;82.02;97254.50;5113549;28;20364;-61
2022/11/19 04:11:11;;;;;;;;;;;;;;;2.30;82.14;97254.47;5113256;28;19927;-65
2022/11/19 04:13:43;;;;;;;;;;;;;;;2.31;81.34;97253.38;5108603;28;19923;-61
2022/11/19 04:16:11;;;;;;;;;;;;;;;2.44;79.99;97254.66;5110583;28;19924;-61
2022/11/19 04:18:39;;;;;;;;;;;;;;;2.39;80.07;97255.47;5086751;28;20302;-61
2022/11/19 04:21:08;;;;;;;;;;;;;;;2.35;81.03;97249.09;5093978;28;19923;-61
2022/11/19 04:23:37;;;;;;;;;;;;;;;2.23;81.33;97248.56;5109360;28;19928;-61
2022/11/19 04:26:06;;;;;;;;;;;;;;;2.18;81.96;97251.28;5086324;28;19932;-64
2022/11/19 04:28:34;;;;;;;;;;;;;;;2.17;81.49;97263.06;5094079;28;19924;-62
2022/11/19 04:31:02;;;;;;;;;;;;;;;2.05;82.51;97261.50;5093951;28;19979;-62
2022/11/19 04:33:54;;;;;;;;;;;;;;;2.08;82.93;97260.97;5091417;28;20373;-62
2022/11/19 04:36:48;;;;;;;;;;;;;;;2.00;82.38;97266.88;5085305;28;19999;-61
2022/11/19 04:39:17;;;;;;;;;;;;;;;2.08;82.10;97265.53;5091789;28;19931;-61
2022/11/19 04:41:46;;;;;;;;;;;;;;;2.09;82.83;97273.28;5088853;28;19932;-60
2022/11/19 04:44:16;;;;;;;;;;;;;;;2.07;82.03;97267.38;5092740;28;19931;-61
2022/11/19 04:46:44;;;;;;;;;;;;;;;2.14;82.00;97264.44;5087884;28;19931;-61
2022/11/19 04:49:11;;;;;;;;;;;;;;;2.13;82.51;97264.69;5091176;28;20442;-62
2022/11/19 04:51:40;;;;;;;;;;;;;;;2.22;82.16;97255.03;5091284;28;19981;-59
2022/11/19 04:54:14;;;;;;;;;;;;;;;2.17;82.02;97263.88;5091218;28;20312;-62
2022/11/19 04:56:44;;;;;;;;;;;;;;;2.23;81.47;97259.31;5090776;28;19932;-61
2022/11/19 04:59:12;;;;;;;;;;;;;;;2.27;82.38;97265.72;5085462;28;19924;-61
2022/11/19 05:01:41;;;;;;;;;;;;;;;2.21;81.37;97270.31;5092177;28;19924;-60
2022/11/19 05:04:09;;;;;;;;;;;;;;;2.10;80.40;97261.50;5089592;28;20339;-62
2022/11/19 05:06:41;;;;;;;;;;;;;;;2.04;81.62;97273.28;5085701;28;19945;-62
2022/11/19 05:09:09;;;;;;;;;;;;;;;1.97;81.80;97264.75;5087685;28;19924;-57
2022/11/19 05:11:37;;;;;;;;;;;;;;;2.03;82.40;97271.69;5086168;28;20159;-59
2022/11/19 05:14:07;;;;;;;;;;;;;;;2.07;81.55;97263.91;5090717;28;19935;-61
2022/11/19 05:16:35;;;;;;;;;;;;;;;2.22;82.24;97271.09;5088367;28;19932;-58
2022/11/19 05:19:03;;;;;;;;;;;;;;;2.12;82.65;97257.72;5085004;28;20389;-62
2022/11/19 05:21:33;;;;;;;;;;;;;;;2.31;80.56;97258.75;5083608;28;19975;-62
2022/11/19 05:24:04;;;;;;;;;;;;;;;2.20;80.63;97262.53;5089011;28;20304;-62
2022/11/19 05:26:32;;;;;;;;;;;;;;;2.10;80.81;97269.53;5109746;28;19923;-60
2022/11/19 05:29:00;;;;;;;;;;;;;;;2.04;81.14;97265.25;5090770;28;19924;-62
2022/11/19 05:31:30;;;;;;;;;;;;;;;2.15;81.30;97267.91;5108809;28;19924;-60
2022/11/19 05:34:22;;;;;;;;;;;;;;;2.19;81.09;97266.31;5102239;28;19993;-59
2022/11/19 05:36:50;;;;;;;;;;;;;;;2.19;80.57;97267.09;5092658;28;19931;-61
2022/11/19 05:39:19;;;;;;;;;;;;;;;2.09;80.56;97272.50;5112250;28;20395;-61
2022/11/19 05:41:49;;;;;;;;;;;;;;;2.17;80.64;97268.44;5109083;28;20505;-61
2022/11/19 05:44:19;;;;;;;;;;;;;;;2.01;81.87;97265.78;5113897;27;19945;-60
2022/11/19 05:46:49;;;;;;;;;;;;;;;1.96;81.33;97260.44;5109891;27;19924;-62
2022/11/19 05:49:17;;;;;;;;;;;;;;;2.01;80.71;97254.28;5103120;28;19924;-62
2022/11/19 05:51:45;;;;;;;;;;;;;;;2.05;81.67;97253.47;5105918;28;19938;-61
2022/11/19 05:54:15;;;;;;;;;;;;;;;2.06;81.48;97257.75;5109188;28;19928;-59
2022/11/19 05:56:43;;;;;;;;;;;;;;;1.95;81.28;97266.88;5111105;27;19931;-61
2022/11/19 06:02:10;;;;;;;;;;;;;;;1.90;82.22;97258.84;5102065;28;19928;-61
2022/11/19 06:04:38;;;;;;;;;;;;;;;2.00;81.07;97258.84;5101613;28;19974;-62
2022/11/19 06:07:06;;;;;;;;;;;;;;;2.09;81.89;97254.53;5109584;28;19928;-60
2022/11/19 06:09:34;;;;;;;;;;;;;;;2.04;81.49;97259.91;5110707;27;19932;-62
2022/11/19 06:12:02;;;;;;;;;;;;;;;2.08;80.91;97266.31;5106192;28;19967;-61
2022/11/19 06:14:30;;;;;;;;;;;;;;;2.09;81.32;97273.28;5112202;27;19968;-61
2022/11/19 06:16:59;;;;;;;;;;;;;;;2.19;80.83;97277.03;5104783;28;19953;-60
2022/11/19 06:19:28;;;;;;;;;;;;;;;2.35;78.96;97275.91;5105085;28;19927;-62
2022/11/19 06:21:56;;;;;;;;;;;;;;;2.31;79.15;97272.16;5108545;28;19927;-61
2022/11/19 06:24:24;;;;;;;;;;;;;;;2.27;79.64;97279.94;5108463;27;19932;-62
2022/11/19 06:26:52;;;;;;;;;;;;;;;2.22;80.20;97287.97;5117305;28;19924;-62
2022/11/19 06:29:21;;;;;;;;;;;;;;;2.05;79.25;97288.28;5111893;27;19957;-61
2022/11/19 06:31:49;;;;;;;;;;;;;;;2.08;80.41;97287.75;5098854;28;19924;-61
2022/11/19 06:34:17;;;;;;;;;;;;;;;2.01;80.40;97287.22;5115320;27;19927;-62
2022/11/19 06:36:47;;;;;;;;;;;;;;;1.99;80.45;97286.69;5104091;28;20013;-61
2022/11/19 06:39:17;;;;;;;;;;;;;;;2.02;80.37;97291.50;5119345;27;19928;-61
2022/11/19 06:41:47;;;;;;;;;;;;;;;2.06;80.93;97292.56;5119096;27;19928;-58
2022/11/19 06:44:15;;;;;;;;;;;;;;;2.09;81.46;97300.09;5097408;28;20351;-61
2022/11/19 06:46:43;;;;;;;;;;;;;;;2.09;80.32;97300.09;5084736;28;19932;-62
2022/11/19 06:49:11;;;;;;;;;;;;;;;2.04;80.19;97299.28;5111479;27;19923;-62
2022/11/19 06:51:45;;;;;;;;;;;;;;;2.07;79.56;97312.13;5086556;27;20387;-61
2022/11/19 06:54:16;;;;;;;;;;;;;;;1.98;79.86;97313.78;5111876;27;20348;-61
2022/11/19 06:56:45;;;;;;;;;;;;;;;1.98;80.32;97319.13;5109451;27;19955;-62
2022/11/19 06:59:13;;;;;;;;;;;;;;;2.00;79.42;97325.81;5113310;28;19931;-62
2022/11/19 07:01:43;;;;;;;;;;;;;;;1.93;78.78;97330.66;5089811;28;19938;-60
2022/11/19 07:04:11;;;;;;;;;;;;;;;1.99;78.46;97329.56;5108998;28;19953;-61
2022/11/19 07:06:39;;;;;;;;;;;;;;;1.96;79.26;97337.34;5103228;28;19935;-61
2022/11/19 07:09:07;;;;;;;;;;;;;;;1.87;79.59;97334.41;5093805;28;19932;-58
2022/11/19 07:11:37;;;;;;;;;;;;;;;2.09;77.82;97337.59;5103313;28;19923;-58
2022/11/19 07:14:05;;;;;;;;;;;;;;;2.05;78.35;97343.75;5112268;28;19931;-57
2022/11/19 07:16:34;;;;;;;;;;;;;;;2.13;78.17;97347.75;5113901;28;19930;-57
2022/11/19 07:19:03;;;;;;;;;;;;;;;2.02;78.49;97347.75;5107750;28;19935;-56
2022/11/19 07:21:31;;;;;;;;;;;;;;;2.22;76.59;97346.13;5088759;28;19930;-57
2022/11/19 07:24:00;;;;;;;;;;;;;;;2.03;76.86;97360.13;5110884;28;19972;-57
2022/11/19 07:26:28;;;;;;;;;;;;;;;1.94;76.52;97352.88;5103451;28;20455;-57
2022/11/19 07:28:59;;;;;;;;;;;;;;;1.78;76.60;97362.78;5110596;27;19930;-58
2022/11/19 07:31:33;;;;;;;;;;;;;;;1.71;76.62;97370.31;5110909;27;19924;-57
2022/11/19 07:34:26;;;;;;;;;;;;;;;1.67;76.78;97377.25;5105423;27;19923;-58
2022/11/19 07:36:54;;;;;;;;;;;;;;;1.68;77.41;97378.84;5113698;27;19924;-57
2022/11/19 07:39:23;;;;;;;;;;;;;;;1.67;78.15;97374.56;5104060;28;20654;-56
2022/11/19 07:44:53;;;;;;;;;;;;;;;1.80;77.14;97382.88;5040316;28;20345;-59
2022/11/19 07:47:22;;;;;;;;;;;;;;;1.56;77.78;97385.28;5117674;27;19924;-56
2022/11/19 07:49:49;;;;;;;;;;;;;;;1.66;77.42;97391.72;5108679;27;20315;-57
2022/11/19 07:52:18;;;;;;;;;;;;;;;1.63;77.48;97387.69;5103529;28;19928;-57
2022/11/19 07:54:46;;;;;;;;;;;;;;;1.58;78.81;97382.31;5090540;28;19924;-57
2022/11/19 07:57:14;;;;;;;;;;;;;;;1.57;79.07;97378.03;5122877;27;19924;-60
2022/11/19 07:59:42;;;;;;;;;;;;;;;1.40;79.12;97369.47;5096213;27;19938;-58
2022/11/19 08:02:14;;;;;;;;;;;;;;;1.47;78.91;97376.16;5094030;27;19953;-58
2022/11/19 08:04:43;;;;;;;;;;;;;;;1.49;79.53;97386.59;5113442;27;19935;-57
2022/11/19 08:07:11;;;;;;;;;;;;;;;1.44;78.74;97379.38;5115528;27;20296;-58
2022/11/19 08:09:39;;;;;;;;;;;;;;;1.41;80.24;97379.91;5111884;27;20380;-57
2022/11/19 08:12:07;;;;;;;;;;;;;;;1.29;80.07;97374.78;5110479;28;19930;-57
2022/11/19 08:14:35;;;;;;;;;;;;;;;1.27;81.45;97374.22;5094885;28;19974;-57
2022/11/19 08:19:50;;;;;;;;;;;;;;;1.09;82.72;97376.59;5113472;27;19928;-56
2022/11/19 08:22:42;;;;;;;;;;;;;;;1.08;82.93;97380.34;5112699;27;19931;-57
2022/11/19 08:25:11;;;;;;;;;;;;;;;1.26;81.75;97377.19;5106332;27;20288;-58
2022/11/19 08:27:41;;;;;;;;;;;;;;;1.14;81.92;97385.44;5111588;27;19934;-57
2022/11/19 08:30:10;;;;;;;;;;;;;;;1.23;82.40;97389.22;5112615;27;19928;-56
2022/11/19 08:32:38;;;;;;;;;;;;;;;1.28;82.08;97391.13;5109495;27;19928;-57
2022/11/19 08:35:14;;;;;;;;;;;;;;;1.33;82.70;97398.34;5114710;27;20342;-57
2022/11/19 08:37:43;;;;;;;;;;;;;;;1.16;82.35;97394.00;5107016;27;20292;-57
2022/11/19 08:44:52;;;;;;;;;;;;;;;1.26;82.91;97399.38;5106312;27;19935;-57
2022/11/19 08:47:20;;;;;;;;;;;;;;;1.25;81.88;97405.00;5105326;28;20339;-55
2022/11/19 08:49:47;;;;;;;;;;;;;;;1.17;82.22;97406.34;5104655;28;19924;-56
2022/11/19 08:52:16;;;;;;;;;;;;;;;1.22;81.04;97402.84;5101475;28;19924;-55
2022/11/19 08:54:47;;;;;;;;;;;;;;;1.21;81.31;97406.59;5105566;28;19924;-58
2022/11/19 08:57:16;;;;;;;;;;;;;;;1.16;80.77;97407.38;5099239;28;19924;-57
2022/11/19 08:59:44;;;;;;;;;;;;;;;1.26;81.13;97418.13;5101294;28;20017;-58
2022/11/19 09:02:37;;;;;;;;;;;;;;;1.08;80.97;97415.94;5104774;28;20001;-58
2022/11/19 09:05:08;;;;;;;;;;;;;;;1.13;81.22;97417.81;5114519;27;19934;-58
2022/11/19 09:07:41;;;;;;;;;;;;;;;1.12;80.81;97418.88;5103062;28;19929;-57
2022/11/19 09:10:10;;;;;;;;;;;;;;;1.22;81.14;97422.38;5099654;28;19925;-57
2022/11/19 09:12:39;;;;;;;;;;;;;;;1.13;80.59;97415.16;5102016;28;19932;-58
2022/11/19 09:15:08;;;;;;;;;;;;;;;1.27;81.02;97429.63;5108697;28;19967;-58
2022/11/19 09:17:36;;;;;;;;;;;;;;;1.26;80.03;97423.47;5100543;28;19935;-57
2022/11/19 09:20:08;;;;;;;;;;;;;;;1.34;80.75;97427.53;5103949;28;20042;-58
2022/11/19 09:22:37;;;;;;;;;;;;;;;1.40;81.34;97429.16;5096760;28;20026;-58
2022/11/19 09:25:07;;;;;;;;;;;;;;;1.39;80.25;97434.78;5115952;28;19923;-58
2022/11/19 09:27:35;;;;;;;;;;;;;;;1.30;79.81;97437.94;5102947;28;20444;-58
2022/11/19 09:30:06;;;;;;;;;;;;;;;1.35;80.10;97447.88;5103870;28;19928;-58
2022/11/19 09:32:35;;;;;;;;;;;;;;;1.38;79.63;97450.00;5095161;28;20349;-58
2022/11/19 09:35:28;;;;;;;;;;;;;;;1.46;79.51;97435.31;5099981;28;19936;-58
2022/11/19 09:37:56;;;;;;;;;;;;;;;1.49;79.50;97440.94;5105603;28;19924;-57
2022/11/19 09:40:25;;;;;;;;;;;;;;;1.50;79.75;97436.41;5095201;28;19924;-57
2022/11/19 09:42:57;;;;;;;;;;;;;;;1.46;79.52;97435.31;5104589;28;19946;-57
2022/11/19 09:45:29;;;;;;;;;;;;;;;1.55;79.92;97445.25;5098150;28;19935;-56
2022/11/19 09:48:02;;;;;;;;;;;;;;;1.55;78.99;97442.56;5107408;28;19923;-57
2022/11/19 09:50:31;;;;;;;;;;;;;;;1.68;77.87;97446.59;5101362;27;19928;-57
2022/11/19 09:53:00;;;;;;;;;;;;;;;1.64;78.53;97448.19;5083788;28;19932;-57
2022/11/19 09:55:29;;;;;;;;;;;;;;;1.54;78.42;97438.25;5092646;28;20304;-56
2022/11/19 09:57:58;;;;;;;;;;;;;;;1.84;78.60;97442.06;5083930;28;19975;-57
2022/11/19 10:00:31;;;;;;;;;;;;;;;1.90;77.38;97435.66;5087865;28;20336;-57
2022/11/19 10:03:01;;;;;;;;;;;;;;;1.73;77.06;97440.44;5089114;28;19924;-57
2022/11/19 10:05:37;;;;;;;;;;;;;;;1.82;77.93;97442.34;5085805;28;19931;-56
2022/11/19 10:08:10;;;;;;;;;;;;;;;1.80;77.96;97441.00;5088777;28;19983;-57
2022/11/19 10:10:40;;;;;;;;;;;;;;;1.70;78.12;97440.97;5091277;28;19940;-57
2022/11/19 10:13:12;;;;;;;;;;;;;;;1.80;78.36;97447.16;5085188;28;19925;-57
2022/11/19 10:15:44;;;;;;;;;;;;;;;1.67;77.83;97434.28;5089116;28;20240;-56
2022/11/19 10:18:13;;;;;;;;;;;;;;;1.72;78.17;97438.84;5087727;28;19978;-57
2022/11/19 10:20:48;;;;;;;;;;;;;;;1.82;78.66;97438.88;5094802;28;19941;-57
2022/11/19 10:23:17;;;;;;;;;;;;;;;1.84;77.18;97436.72;5084543;28;19924;-57
2022/11/19 10:25:46;;;;;;;;;;;;;;;1.76;76.10;97430.03;5081086;28;19925;-57
2022/11/19 10:28:15;;;;;;;;;;;;;;;1.81;76.98;97427.34;5084425;28;19928;-57
2022/11/19 10:30:47;;;;;;;;;;;;;;;1.69;77.39;97428.66;5079923;28;19925;-59
2022/11/19 10:36:16;;;;;;;;;;;;;;;1.73;78.49;97429.75;5083908;28;19977;-56
2022/11/19 10:38:51;;;;;;;;;;;;;;;1.72;78.79;97431.63;5084830;28;19939;-56
2022/11/19 10:41:20;;;;;;;;;;;;;;;1.77;78.66;97434.31;5087534;28;20419;-56
2022/11/19 10:43:50;;;;;;;;;;;;;;;1.69;78.99;97432.13;5084626;28;19928;-57
2022/11/19 10:46:22;;;;;;;;;;;;;;;1.77;78.72;97425.47;5082077;28;19924;-59
2022/11/19 10:48:52;;;;;;;;;;;;;;;1.74;78.70;97426.00;5085128;28;19924;-57
2022/11/19 10:51:44;;;;;;;;;;;;;;;1.84;78.68;97423.31;5085890;28;19939;-57
2022/11/19 10:54:21;;;;;;;;;;;;;;;1.85;78.75;97424.94;5089699;28;19967;-56
2022/11/19 10:56:49;;;;;;;;;;;;;;;1.83;78.98;97429.75;5091578;28;19935;-55
2022/11/19 10:59:18;;;;;;;;;;;;;;;1.84;78.78;97432.16;5088668;28;19939;-57
2022/11/19 11:01:49;;;;;;;;;;;;;;;1.61;78.76;97435.34;5089140;28;19932;-54
2022/11/19 11:04:19;;;;;;;;;;;;;;;1.41;79.22;97427.28;5079365;28;19931;-57
2022/11/19 11:06:51;;;;;;;;;;;;;;;1.50;78.54;97421.13;5081699;28;19925;-56
2022/11/19 11:09:30;;;;;;;;;;;;;;;1.52;80.05;97420.88;5088477;28;19925;-54
2022/11/19 11:14:54;;;;;;;;;;;;;;;1.74;79.31;97409.91;5085785;28;20381;-57
2022/11/19 11:17:25;;;;;;;;;;;;;;;1.69;78.19;97415.28;5098119;28;19938;-57
2022/11/19 11:20:00;;;;;;;;;;;;;;;1.69;78.90;97407.25;5083850;28;19931;-56
2022/11/19 11:22:53;;;;;;;;;;;;;;;1.69;78.98;97407.25;5083578;28;20020;-57
2022/11/19 11:25:22;;;;;;;;;;;;;;;1.76;78.96;97407.78;5078680;28;20388;-56
2022/11/19 11:30:51;;;;;;;;;;;;;;;1.64;78.93;97407.22;5085242;28;21434;-57
2022/11/19 11:33:28;;;;;;;;;;;;;;;1.81;77.43;97410.44;5087326;28;20281;-57
2022/11/19 11:36:20;;;;;;;;;;;;;;;1.60;76.91;97393.59;5090880;28;19928;-55
2022/11/19 11:38:49;;;;;;;;;;;;;;;1.62;78.41;97398.66;5080241;28;20337;-56
2022/11/19 11:41:18;;;;;;;;;;;;;;;1.83;78.21;97405.66;5089835;28;19935;-57
2022/11/19 11:44:16;;;;;;;;;;;;;;;1.70;77.87;97398.13;5074966;28;19924;-57
2022/11/19 11:46:45;;;;;;;;;;;;;;;1.74;78.70;97401.88;5079429;28;19977;-55
2022/11/19 11:49:26;;;;;;;;;;;;;;;1.64;77.98;97399.19;5080606;28;19932;-57
2022/11/19 11:52:12;;;;;;;;;;;;;;;1.56;77.85;97397.84;5087253;28;20442;-57
2022/11/19 11:54:53;;;;;;;;;;;;;;;1.66;78.41;97405.09;5080617;28;20597;-57
2022/11/19 11:57:22;;;;;;;;;;;;;;;1.52;78.02;97415.50;5084113;28;19932;-57
2022/11/19 11:59:51;;;;;;;;;;;;;;;1.35;78.46;97417.63;5088413;28;19933;-57
2022/11/19 12:02:21;;;;;;;;;;;;;;;1.17;78.80;97430.41;5094799;28;19930;-57
2022/11/19 12:04:51;;;;;;;;;;;;;;;1.20;79.73;97426.41;5086573;28;19974;-57
2022/11/19 12:07:24;;;;;;;;;;;;;;;1.21;79.67;97419.97;5087153;28;19935;-57
2022/11/19 12:09:53;;;;;;;;;;;;;;;1.20;80.23;97410.34;5093433;28;20383;-57
2022/11/19 12:12:25;;;;;;;;;;;;;;;1.24;79.19;97403.41;5091573;28;19923;-57
2022/11/19 12:14:53;;;;;;;;;;;;;;;1.27;80.14;97397.50;5076596;28;19924;-58
2022/11/19 12:17:34;;;;;;;;;;;;;;;1.28;80.32;97399.16;5089920;28;19931;-57
2022/11/19 12:20:13;;;;;;;;;;;;;;;1.25;79.26;97397.78;5095274;28;19988;-57
2022/11/19 12:22:44;;;;;;;;;;;;;;;1.25;80.08;97403.13;5087454;28;19928;-56
2022/11/19 12:25:20;;;;;;;;;;;;;;;1.33;79.97;97398.34;5091347;28;19985;-58
2022/11/19 12:27:51;;;;;;;;;;;;;;;1.39;79.17;97399.97;5078781;28;20396;-57
2022/11/19 12:30:44;;;;;;;;;;;;;;;1.45;78.88;97397.03;5092766;28;19954;-57
2022/11/19 12:36:21;;;;;;;;;;;;;;;1.36;78.84;97406.66;5095070;28;19928;-57
2022/11/19 12:38:52;;;;;;;;;;;;;;;1.39;79.20;97405.31;5097660;28;19936;-56
2022/11/19 12:41:30;;;;;;;;;;;;;;;1.27;79.22;97406.34;5088238;28;19924;-54
2022/11/19 12:43:59;;;;;;;;;;;;;;;1.21;79.22;97409.28;5086493;28;19928;-57
2022/11/19 12:46:30;;;;;;;;;;;;;;;1.20;79.31;97402.31;5091038;28;19928;-57
2022/11/19 12:49:01;;;;;;;;;;;;;;;1.10;79.63;97402.28;5077599;28;19989;-56
2022/11/19 12:51:35;;;;;;;;;;;;;;;1.11;79.64;97401.22;5074803;28;19924;-57
2022/11/19 12:57:08;;;;;;;;;;;;;;;1.07;78.86;97389.44;5101296;28;19931;-57
2022/11/19 12:59:41;;;;;;;;;;;;;;;1.04;80.58;97388.91;5083092;28;19978;-56
2022/11/19 13:02:15;;;;;;;;;;;;;;;1.03;79.90;97384.63;5076429;28;19960;-57
2022/11/19 13:04:43;;;;;;;;;;;;;;;1.02;79.98;97393.72;5085703;28;19966;-57
2022/11/19 13:07:13;;;;;;;;;;;;;;;0.97;80.05;97376.84;5089878;28;20395;-57
2022/11/19 13:09:43;;;;;;;;;;;;;;;1.10;80.89;97387.03;5091475;28;19931;-57
2022/11/19 13:12:36;;;;;;;;;;;;;;;1.18;80.83;97391.09;5087742;28;20519;-57
2022/11/19 13:15:07;;;;;;;;;;;;;;;1.16;80.63;97393.22;5083909;28;19924;-57
2022/11/19 13:17:37;;;;;;;;;;;;;;;1.19;79.92;97393.50;5083242;28;20010;-58
2022/11/19 13:20:06;;;;;;;;;;;;;;;1.17;79.29;97389.47;5083592;28;19924;-56
2022/11/19 13:22:37;;;;;;;;;;;;;;;1.21;80.02;97398.56;5085775;28;19932;-57
2022/11/19 13:25:10;;;;;;;;;;;;;;;1.26;79.41;97395.91;5081418;28;19924;-57
2022/11/19 13:27:38;;;;;;;;;;;;;;;1.13;80.13;97393.75;5094108;28;20034;-56
2022/11/19 13:30:32;;;;;;;;;;;;;;;1.12;80.58;97392.13;5085508;28;19924;-57
2022/11/19 13:36:22;;;;;;;;;;;;;;;1.16;81.19;97385.19;5092342;28;19949;-57
2022/11/19 13:38:52;;;;;;;;;;;;;;;1.08;81.19;97391.06;5087859;28;20276;-57
2022/11/19 13:41:22;;;;;;;;;;;;;;;0.93;80.94;97379.22;5089327;28;20911;-54
2022/11/19 13:46:37;;;;;;;;;;;;;;;1.00;81.19;97390.47;5080681;28;20297;-56
2022/11/19 13:49:07;;;;;;;;;;;;;;;0.95;81.22;97398.47;5083210;28;19933;-57
2022/11/19 13:51:37;;;;;;;;;;;;;;;0.97;81.42;97396.38;5086673;28;19932;-57
2022/11/19 13:56:59;;;;;;;;;;;;;;;1.00;82.16;97403.84;5085842;28;19928;-56
2022/11/19 13:59:29;;;;;;;;;;;;;;;1.09;81.85;97392.66;5092663;28;20309;-56
2022/11/19 14:02:14;;;;;;;;;;;;;;;1.03;81.51;97395.31;5093762;28;19931;-57
2022/11/19 14:04:49;;;;;;;;;;;;;;;1.10;82.04;97400.41;5084773;28;19924;-56
2022/11/19 14:07:24;;;;;;;;;;;;;;;1.00;81.80;97411.06;5094843;28;19931;-57
2022/11/19 14:10:01;;;;;;;;;;;;;;;1.11;81.68;97406.56;5085125;28;19935;-57
2022/11/19 14:12:40;;;;;;;;;;;;;;;1.18;81.68;97407.16;5094279;28;20330;-57